Time;durP1;ratioP1;P1;durP2;ratioP2;P2;SDS_P1;SDS_P2;PMS_P1;PMS_P2;Temp;Humidity;BMP_temperature;BMP_pressure;BME280_temperature;BME280_humidity;BME280_pressure;Samples;Min_cycle;Max_cycle;Signal;HPM_P1;HPM_P2
2022/07/18 00:00:13;;;;;;;;;;;24.20;79.70;;;;;;5073062;28;19973;-64
2022/07/18 00:02:39;;;;;;;;;;;24.40;79.80;;;;;;5073754;28;19974;-63
2022/07/18 00:05:04;;;;;;;;;;;24.20;79.90;;;;;;5072303;28;19928;-64
2022/07/18 00:07:30;;;;;;;;;;;24.20;79.30;;;;;;5074061;28;19928;-63
2022/07/18 00:09:55;;;;;;;;;;;24.40;80.00;;;;;;5071730;28;19924;-63
2022/07/18 00:12:21;;;;;;;;;;;24.10;79.70;;;;;;5070901;28;19921;-63
2022/07/18 00:14:47;;;;;;;;;;;24.20;79.90;;;;;;5073862;28;19922;-63
2022/07/18 00:17:12;;;;;;;;;;;24.00;79.70;;;;;;5071526;28;20007;-63
2022/07/18 00:19:38;;;;;;;;;;;24.40;80.00;;;;;;5056162;28;20441;-63
2022/07/18 00:22:03;;;;;;;;;;;24.20;80.00;;;;;;5077429;28;20270;-63
2022/07/18 00:24:31;;;;;;;;;;;24.20;79.80;;;;;;5077312;28;19920;-63
2022/07/18 00:26:57;;;;;;;;;;;24.20;79.90;;;;;;5077424;28;19974;-63
2022/07/18 00:29:23;;;;;;;;;;;24.00;79.90;;;;;;5098104;28;19920;-63
2022/07/18 00:31:48;;;;;;;;;;;24.00;79.70;;;;;;5097464;28;19963;-62
2022/07/18 00:34:14;;;;;;;;;;;24.20;80.00;;;;;;5098075;28;19924;-63
2022/07/18 00:36:39;;;;;;;;;;;24.10;79.70;;;;;;5078583;28;20343;-62
2022/07/18 00:39:05;;;;;;;;;;;24.30;80.00;;;;;;5077974;28;20274;-63
2022/07/18 00:41:31;;;;;;;;;;;24.40;79.90;;;;;;5078302;28;19945;-62
2022/07/18 00:43:57;;;;;;;;;;;24.20;79.80;;;;;;5077308;28;19924;-63
2022/07/18 00:46:23;;;;;;;;;;;24.20;79.70;;;;;;5092923;28;19920;-63
2022/07/18 00:48:49;;;;;;;;;;;24.20;80.00;;;;;;5078134;28;19927;-63
2022/07/18 00:51:14;;;;;;;;;;;24.30;79.80;;;;;;5062955;28;19920;-62
2022/07/18 00:53:40;;;;;;;;;;;24.50;80.10;;;;;;5079724;28;19924;-62
2022/07/18 00:56:06;;;;;;;;;;;24.20;79.60;;;;;;5078367;28;20316;-62
2022/07/18 00:58:31;;;;;;;;;;;24.20;79.70;;;;;;5071573;28;19927;-64
2022/07/18 01:03:41;;;;;;;;;;;24.20;79.00;;;;;;5078534;28;19981;-63
2022/07/18 01:06:07;;;;;;;;;;;24.20;79.70;;;;;;5062582;28;20362;-64
2022/07/18 01:08:32;;;;;;;;;;;24.20;79.80;;;;;;5077585;28;20374;-63
2022/07/18 01:10:58;;;;;;;;;;;24.20;79.80;;;;;;5078929;28;19920;-63
2022/07/18 01:13:24;;;;;;;;;;;24.40;79.90;;;;;;5095907;28;19959;-63
2022/07/18 01:15:49;;;;;;;;;;;24.20;79.70;;;;;;5096391;28;19920;-63
2022/07/18 01:18:15;;;;;;;;;;;24.20;79.80;;;;;;5096542;28;21806;-64
2022/07/18 01:20:40;;;;;;;;;;;24.00;79.70;;;;;;5096711;28;20007;-63
2022/07/18 01:23:06;;;;;;;;;;;24.30;79.80;;;;;;5097011;28;20377;-63
2022/07/18 01:25:31;;;;;;;;;;;24.20;79.80;;;;;;5077359;28;19928;-63
2022/07/18 01:27:57;;;;;;;;;;;24.00;79.70;;;;;;5078384;28;19970;-63
2022/07/18 01:30:23;;;;;;;;;;;24.10;79.70;;;;;;5060663;28;20331;-63
2022/07/18 01:32:56;;;;;;;;;;;24.20;80.00;;;;;;5095186;28;19923;-63
2022/07/18 01:35:22;;;;;;;;;;;24.10;78.50;;;;;;5078900;28;20342;-63
2022/07/18 01:37:49;;;;;;;;;;;24.00;79.80;;;;;;5078510;28;20018;-63
2022/07/18 01:40:15;;;;;;;;;;;23.80;79.90;;;;;;5095378;28;20350;-63
2022/07/18 01:42:41;;;;;;;;;;;24.00;79.70;;;;;;5096813;28;20026;-63
2022/07/18 01:45:06;;;;;;;;;;;24.00;79.70;;;;;;5096711;28;19973;-63
2022/07/18 01:47:32;;;;;;;;;;;24.10;79.50;;;;;;5096798;28;20001;-63
2022/07/18 01:49:58;;;;;;;;;;;24.00;79.60;;;;;;5076963;28;20422;-62
2022/07/18 01:52:23;;;;;;;;;;;24.00;79.40;;;;;;5078228;28;19920;-63
2022/07/18 01:54:49;;;;;;;;;;;24.10;79.70;;;;;;5096597;28;19965;-63
2022/07/18 01:57:14;;;;;;;;;;;23.90;79.60;;;;;;5096322;28;19999;-63
2022/07/18 01:59:40;;;;;;;;;;;24.10;79.80;;;;;;5078989;28;19920;-63
2022/07/18 02:02:05;;;;;;;;;;;24.00;79.70;;;;;;5077108;28;19928;-63
2022/07/18 02:07:15;;;;;;;;;;;23.80;78.70;;;;;;5096395;28;19965;-64
2022/07/18 02:09:41;;;;;;;;;;;24.10;79.70;;;;;;5096291;28;19924;-63
2022/07/18 02:12:07;;;;;;;;;;;24.00;79.60;;;;;;5076946;28;20369;-63
2022/07/18 02:14:32;;;;;;;;;;;23.80;79.60;;;;;;5096097;28;19924;-63
2022/07/18 02:16:58;;;;;;;;;;;24.10;79.70;;;;;;5096163;28;19927;-63
2022/07/18 02:19:23;;;;;;;;;;;24.00;79.70;;;;;;5060193;28;20297;-63
2022/07/18 02:21:49;;;;;;;;;;;23.90;79.50;;;;;;5092773;28;20019;-63
2022/07/18 02:24:14;;;;;;;;;;;24.00;79.60;;;;;;5096002;28;19927;-63
2022/07/18 02:26:40;;;;;;;;;;;24.10;79.50;;;;;;5096593;28;19986;-63
2022/07/18 02:29:06;;;;;;;;;;;23.90;79.60;;;;;;5077306;28;20008;-63
2022/07/18 02:31:31;;;;;;;;;;;24.10;79.50;;;;;;5095234;28;19919;-64
2022/07/18 02:33:57;;;;;;;;;;;24.00;79.40;;;;;;5076171;28;19920;-63
2022/07/18 02:36:23;;;;;;;;;;;23.90;79.50;;;;;;5094642;28;19920;-63
2022/07/18 02:38:48;;;;;;;;;;;24.10;79.30;;;;;;5060558;28;20011;-63
2022/07/18 02:41:14;;;;;;;;;;;24.10;79.60;;;;;;5077641;28;19927;-62
2022/07/18 02:43:40;;;;;;;;;;;23.90;79.40;;;;;;5094377;28;19919;-63
2022/07/18 02:46:05;;;;;;;;;;;24.10;79.50;;;;;;5075833;28;20002;-63
2022/07/18 02:48:31;;;;;;;;;;;24.10;79.30;;;;;;5060389;28;19943;-63
2022/07/18 02:50:57;;;;;;;;;;;23.90;79.30;;;;;;5094916;28;20014;-63
2022/07/18 02:53:23;;;;;;;;;;;24.00;79.30;;;;;;5094395;28;20918;-63
2022/07/18 02:55:50;;;;;;;;;;;23.80;79.50;;;;;;5095984;28;19926;-62
2022/07/18 02:58:16;;;;;;;;;;;24.10;79.70;;;;;;5076018;28;19920;-63
2022/07/18 03:00:41;;;;;;;;;;;23.80;79.50;;;;;;5056743;28;19927;-63
2022/07/18 03:03:07;;;;;;;;;;;23.90;79.50;;;;;;5056787;28;19966;-63
2022/07/18 03:05:32;;;;;;;;;;;23.90;79.40;;;;;;5092567;28;19963;-63
2022/07/18 03:07:58;;;;;;;;;;;23.80;79.40;;;;;;5076722;28;19920;-63
2022/07/18 03:10:24;;;;;;;;;;;23.80;79.30;;;;;;5094939;28;19927;-63
2022/07/18 03:12:49;;;;;;;;;;;23.80;79.30;;;;;;5076295;28;19920;-63
2022/07/18 03:15:15;;;;;;;;;;;23.80;79.20;;;;;;5085826;28;19974;-63
2022/07/18 03:17:40;;;;;;;;;;;23.90;79.40;;;;;;5094989;28;19920;-63
2022/07/18 03:20:06;;;;;;;;;;;24.10;79.50;;;;;;5094987;28;20277;-63
2022/07/18 03:22:33;;;;;;;;;;;23.90;79.00;;;;;;5075105;28;20281;-63
2022/07/18 03:24:59;;;;;;;;;;;23.90;79.40;;;;;;5093600;28;19927;-63
2022/07/18 03:27:24;;;;;;;;;;;23.90;79.40;;;;;;5076301;28;19920;-63
2022/07/18 03:29:50;;;;;;;;;;;24.00;79.30;;;;;;5094501;28;19920;-63
2022/07/18 03:32:15;;;;;;;;;;;24.00;79.30;;;;;;5094814;28;19958;-63
2022/07/18 03:34:41;;;;;;;;;;;23.80;79.90;;;;;;5076587;28;19923;-63
2022/07/18 03:37:07;;;;;;;;;;;23.80;79.40;;;;;;5075341;28;19974;-63
2022/07/18 03:39:32;;;;;;;;;;;24.00;79.40;;;;;;5094472;28;20315;-63
2022/07/18 03:41:58;;;;;;;;;;;23.60;79.00;;;;;;5094311;28;19973;-63
2022/07/18 03:44:23;;;;;;;;;;;23.90;79.10;;;;;;5075603;28;19945;-63
2022/07/18 03:46:51;;;;;;;;;;;23.60;79.10;;;;;;5072883;28;19920;-63
2022/07/18 03:49:17;;;;;;;;;;;23.70;79.10;;;;;;5094232;28;20446;-63
2022/07/18 03:51:42;;;;;;;;;;;23.90;79.10;;;;;;5076459;28;20006;-63
2022/07/18 03:54:09;;;;;;;;;;;23.90;79.00;;;;;;5093741;28;20365;-63
2022/07/18 03:56:35;;;;;;;;;;;23.90;79.20;;;;;;5074958;28;19920;-63
2022/07/18 03:59:01;;;;;;;;;;;24.00;79.00;;;;;;5074574;28;20276;-63
2022/07/18 04:01:26;;;;;;;;;;;24.10;79.10;;;;;;5094088;28;19920;-63
2022/07/18 04:03:52;;;;;;;;;;;23.70;78.80;;;;;;5071253;28;19924;-63
2022/07/18 04:06:18;;;;;;;;;;;23.60;78.70;;;;;;5092893;28;19920;-63
2022/07/18 04:08:43;;;;;;;;;;;23.90;78.50;;;;;;5074213;28;19981;-63
2022/07/18 04:11:09;;;;;;;;;;;24.00;78.80;;;;;;5076181;28;19965;-63
2022/07/18 04:13:35;;;;;;;;;;;23.90;78.90;;;;;;5088807;28;19927;-63
2022/07/18 04:16:00;;;;;;;;;;;24.00;78.90;;;;;;5093614;28;19982;-63
2022/07/18 04:18:26;;;;;;;;;;;23.80;78.60;;;;;;5075125;28;19935;-63
2022/07/18 04:20:51;;;;;;;;;;;23.80;78.80;;;;;;5093808;28;19924;-64
2022/07/18 04:23:18;;;;;;;;;;;23.80;78.80;;;;;;5075928;28;19924;-63
2022/07/18 04:25:43;;;;;;;;;;;24.10;78.90;;;;;;5093594;28;19973;-62
2022/07/18 04:28:10;;;;;;;;;;;23.80;78.80;;;;;;5093779;28;20327;-63
2022/07/18 04:30:36;;;;;;;;;;;23.80;78.80;;;;;;5073340;28;20392;-63
2022/07/18 04:33:02;;;;;;;;;;;23.70;78.50;;;;;;5058184;28;20014;-63
2022/07/18 04:35:28;;;;;;;;;;;24.00;78.90;;;;;;5075929;28;20259;-63
2022/07/18 04:37:53;;;;;;;;;;;24.00;78.70;;;;;;5075124;28;19972;-63
2022/07/18 04:40:19;;;;;;;;;;;24.10;78.70;;;;;;5074862;28;19920;-63
2022/07/18 04:42:44;;;;;;;;;;;23.70;78.40;;;;;;5093609;28;20393;-63
2022/07/18 04:45:10;;;;;;;;;;;24.10;78.50;;;;;;5093790;28;19927;-63
2022/07/18 04:47:36;;;;;;;;;;;24.00;78.40;;;;;;5092951;28;19924;-63
2022/07/18 04:50:02;;;;;;;;;;;24.10;78.30;;;;;;5092659;28;20034;-63
2022/07/18 04:52:27;;;;;;;;;;;24.10;78.40;;;;;;5058793;28;19998;-63
2022/07/18 04:54:53;;;;;;;;;;;24.00;78.20;;;;;;5059172;28;20306;-63
2022/07/18 04:57:19;;;;;;;;;;;24.00;78.30;;;;;;5074731;28;20007;-63
2022/07/18 04:59:45;;;;;;;;;;;24.30;78.40;;;;;;5075274;28;19975;-63
2022/07/18 05:02:10;;;;;;;;;;;24.20;78.30;;;;;;5074121;28;19981;-63
2022/07/18 05:04:36;;;;;;;;;;;24.10;78.10;;;;;;5075100;28;19923;-63
2022/07/18 05:07:02;;;;;;;;;;;24.40;78.60;;;;;;5095864;28;19920;-62
2022/07/18 05:09:28;;;;;;;;;;;24.10;78.10;;;;;;5096915;28;20332;-63
2022/07/18 05:11:54;;;;;;;;;;;24.20;78.40;;;;;;5096194;28;19920;-62
2022/07/18 05:14:20;;;;;;;;;;;24.00;78.00;;;;;;5096400;28;19920;-63
2022/07/18 05:16:46;;;;;;;;;;;24.00;78.30;;;;;;5097357;28;19928;-63
2022/07/18 05:19:12;;;;;;;;;;;24.00;78.10;;;;;;5096821;28;19920;-63
2022/07/18 05:21:37;;;;;;;;;;;24.00;78.10;;;;;;5095955;28;19926;-63
2022/07/18 05:24:03;;;;;;;;;;;23.90;78.00;;;;;;5095937;28;19924;-63
2022/07/18 05:26:29;;;;;;;;;;;24.40;78.40;;;;;;5096871;28;19920;-63
2022/07/18 05:28:55;;;;;;;;;;;24.00;78.10;;;;;;5095043;28;20088;-63
2022/07/18 05:31:20;;;;;;;;;;;24.30;78.30;;;;;;5078566;28;19927;-63
2022/07/18 05:33:46;;;;;;;;;;;24.40;78.20;;;;;;5075018;28;19999;-63
2022/07/18 05:36:12;;;;;;;;;;;24.00;78.20;;;;;;5095854;28;20297;-63
2022/07/18 05:38:37;;;;;;;;;;;24.20;78.10;;;;;;5078150;28;19960;-63
2022/07/18 05:41:03;;;;;;;;;;;24.40;78.30;;;;;;5095662;28;19927;-63
2022/07/18 05:43:28;;;;;;;;;;;24.20;78.00;;;;;;5076850;28;19919;-63
2022/07/18 05:45:54;;;;;;;;;;;24.40;78.20;;;;;;5096819;28;20091;-64
2022/07/18 05:48:21;;;;;;;;;;;24.20;78.20;;;;;;5096482;28;19920;-62
2022/07/18 05:50:47;;;;;;;;;;;24.30;77.50;;;;;;5094997;28;19920;-63
2022/07/18 05:53:12;;;;;;;;;;;24.30;78.30;;;;;;5096708;28;20284;-63
2022/07/18 05:55:38;;;;;;;;;;;24.50;78.20;;;;;;5077392;28;20289;-63
2022/07/18 05:58:04;;;;;;;;;;;24.30;78.30;;;;;;5094734;28;20430;-64
2022/07/18 06:00:29;;;;;;;;;;;24.10;78.00;;;;;;5096448;28;19920;-63
2022/07/18 06:02:55;;;;;;;;;;;24.10;78.00;;;;;;5060187;28;20220;-64
2022/07/18 06:05:22;;;;;;;;;;;24.40;78.20;;;;;;5095464;28;20057;-64
2022/07/18 06:07:47;;;;;;;;;;;24.30;78.30;;;;;;5078290;28;19920;-64
2022/07/18 06:10:13;;;;;;;;;;;24.40;78.20;;;;;;5078550;28;20369;-64
2022/07/18 06:12:38;;;;;;;;;;;24.50;78.10;;;;;;5095253;28;20285;-63
2022/07/18 06:15:04;;;;;;;;;;;24.50;78.20;;;;;;5092228;28;20341;-63
2022/07/18 06:17:30;;;;;;;;;;;24.50;77.70;;;;;;5094487;28;20290;-62
2022/07/18 06:19:56;;;;;;;;;;;24.60;78.10;;;;;;5073522;28;20011;-62
2022/07/18 06:22:22;;;;;;;;;;;24.40;77.90;;;;;;5072573;28;19920;-63
2022/07/18 06:24:47;;;;;;;;;;;24.40;78.20;;;;;;5075601;28;20027;-63
2022/07/18 06:27:13;;;;;;;;;;;24.70;78.00;;;;;;5077459;28;20026;-63
2022/07/18 06:29:39;;;;;;;;;;;24.80;78.20;;;;;;5076716;28;20039;-64
2022/07/18 06:32:05;;;;;;;;;;;24.80;77.90;;;;;;5094742;28;19919;-72
2022/07/18 06:34:30;;;;;;;;;;;24.40;77.50;;;;;;5094931;28;20286;-73
2022/07/18 06:36:56;;;;;;;;;;;24.80;77.90;;;;;;5086983;28;20007;-74
2022/07/18 06:39:21;;;;;;;;;;;25.00;78.00;;;;;;5078555;28;19920;-72
2022/07/18 06:41:47;;;;;;;;;;;24.90;77.80;;;;;;5076355;28;19926;-74
2022/07/18 06:44:13;;;;;;;;;;;24.90;77.80;;;;;;5076365;28;20333;-63
2022/07/18 06:46:38;;;;;;;;;;;24.70;77.60;;;;;;5059780;28;19997;-63
2022/07/18 06:49:04;;;;;;;;;;;25.10;77.80;;;;;;5056829;28;20007;-65
2022/07/18 06:51:30;;;;;;;;;;;25.00;77.50;;;;;;5080985;28;20332;-63
2022/07/18 06:53:56;;;;;;;;;;;25.00;77.10;;;;;;5094921;28;20027;-63
2022/07/18 06:56:22;;;;;;;;;;;25.60;77.00;;;;;;5069776;28;20007;-73
2022/07/18 06:58:51;;;;;;;;;;;25.40;76.40;;;;;;5074370;28;19973;-73
2022/07/18 07:01:17;;;;;;;;;;;25.20;74.90;;;;;;5074876;28;20297;-74
2022/07/18 07:03:42;;;;;;;;;;;25.20;75.60;;;;;;5074948;28;19920;-63
2022/07/18 07:06:08;;;;;;;;;;;25.50;74.90;;;;;;5076149;28;19927;-63
2022/07/18 07:08:34;;;;;;;;;;;25.50;74.90;;;;;;5094633;28;19964;-63
2022/07/18 07:10:59;;;;;;;;;;;25.70;74.60;;;;;;5094106;28;19964;-72
2022/07/18 07:13:25;;;;;;;;;;;25.60;74.50;;;;;;5093534;28;20010;-63
2022/07/18 07:15:51;;;;;;;;;;;25.70;74.40;;;;;;5076389;28;20487;-63
2022/07/18 07:18:16;;;;;;;;;;;25.80;74.30;;;;;;5093887;28;19920;-63
2022/07/18 07:20:42;;;;;;;;;;;25.70;74.10;;;;;;5093058;28;19946;-64
2022/07/18 07:23:08;;;;;;;;;;;25.90;73.90;;;;;;5072184;28;20028;-63
2022/07/18 07:25:34;;;;;;;;;;;25.90;74.20;;;;;;5076026;28;19919;-64
2022/07/18 07:28:00;;;;;;;;;;;25.80;73.90;;;;;;5075428;28;19919;-65
2022/07/18 07:30:26;;;;;;;;;;;25.80;73.10;;;;;;5092926;28;20395;-64
2022/07/18 07:32:51;;;;;;;;;;;26.00;73.10;;;;;;5075882;28;19924;-63
2022/07/18 07:35:17;;;;;;;;;;;26.00;73.20;;;;;;5093332;28;19926;-67
2022/07/18 07:37:44;;;;;;;;;;;26.00;73.10;;;;;;5075415;28;20006;-64
2022/07/18 07:40:10;;;;;;;;;;;26.30;73.20;;;;;;5075940;28;19920;-65
2022/07/18 07:42:36;;;;;;;;;;;26.10;72.70;;;;;;5094162;28;20014;-65
2022/07/18 07:45:03;;;;;;;;;;;26.30;72.50;;;;;;5070465;28;20007;-68
2022/07/18 07:47:30;;;;;;;;;;;26.50;72.30;;;;;;5093984;28;19920;-64
2022/07/18 07:49:58;;;;;;;;;;;26.20;70.90;;;;;;5075133;28;19974;-67
2022/07/18 07:52:23;;;;;;;;;;;26.40;71.40;;;;;;5059444;28;20377;-64
2022/07/18 07:54:53;;;;;;;;;;;26.70;71.70;;;;;;5056909;28;19920;-64
2022/07/18 07:57:21;;;;;;;;;;;26.50;69.70;;;;;;5068679;28;19980;-64
2022/07/18 07:59:48;;;;;;;;;;;26.60;69.70;;;;;;5075270;28;19927;-65
2022/07/18 08:02:14;;;;;;;;;;;26.60;70.80;;;;;;5075961;28;20282;-66
2022/07/18 08:04:40;;;;;;;;;;;26.70;70.90;;;;;;5074560;28;20053;-64
2022/07/18 08:07:06;;;;;;;;;;;26.40;70.20;;;;;;5074062;28;20428;-66
2022/07/18 08:09:31;;;;;;;;;;;26.60;70.30;;;;;;5074236;28;20007;-65
2022/07/18 08:11:57;;;;;;;;;;;26.30;70.10;;;;;;5092978;28;19920;-64
2022/07/18 08:14:23;;;;;;;;;;;27.00;70.60;;;;;;5093536;28;19919;-66
2022/07/18 08:16:48;;;;;;;;;;;26.80;70.00;;;;;;5075477;28;19989;-64
2022/07/18 08:19:14;;;;;;;;;;;26.80;70.30;;;;;;5074419;28;20029;-64
2022/07/18 08:21:39;;;;;;;;;;;26.80;70.10;;;;;;5058214;28;20005;-64
2022/07/18 08:24:05;;;;;;;;;;;27.00;70.10;;;;;;5075166;28;19973;-64
2022/07/18 08:26:31;;;;;;;;;;;27.00;69.40;;;;;;5064560;28;20354;-64
2022/07/18 08:28:56;;;;;;;;;;;26.90;69.50;;;;;;5091917;28;19927;-64
2022/07/18 08:31:22;;;;;;;;;;;26.80;69.10;;;;;;5057746;28;19920;-64
2022/07/18 08:33:49;;;;;;;;;;;27.00;69.70;;;;;;5071596;28;19946;-75
2022/07/18 08:36:14;;;;;;;;;;;27.20;69.60;;;;;;5075020;28;19919;-75
2022/07/18 08:38:40;;;;;;;;;;;27.00;69.30;;;;;;5092121;28;19927;-66
2022/07/18 08:41:05;;;;;;;;;;;26.60;69.40;;;;;;5075133;28;19928;-65
2022/07/18 08:43:31;;;;;;;;;;;26.90;69.60;;;;;;5079187;28;19924;-64
2022/07/18 08:46:06;;;;;;;;;;;26.70;69.60;;;;;;5078218;28;19919;-66
2022/07/18 08:48:32;;;;;;;;;;;26.70;69.90;;;;;;5093120;28;20377;-64
2022/07/18 08:50:58;;;;;;;;;;;26.70;69.60;;;;;;5077795;28;19927;-65
2022/07/18 08:53:24;;;;;;;;;;;26.60;69.80;;;;;;5076335;28;19959;-67
2022/07/18 08:55:49;;;;;;;;;;;27.10;69.70;;;;;;5093892;28;19970;-64
2022/07/18 08:58:17;;;;;;;;;;;27.10;69.90;;;;;;5096870;28;19924;-64
2022/07/18 09:00:45;;;;;;;;;;;27.10;69.90;;;;;;5096939;28;19920;-64
2022/07/18 09:03:11;;;;;;;;;;;26.80;70.00;;;;;;5096132;28;19973;-64
2022/07/18 09:05:37;;;;;;;;;;;27.30;70.20;;;;;;5096945;28;20014;-64
2022/07/18 09:08:21;;;;;;;;;;;27.00;70.30;;;;;;5079325;28;19920;-64
2022/07/18 09:10:49;;;;;;;;;;;27.20;69.20;;;;;;5078774;28;19920;-64
2022/07/18 09:13:15;;;;;;;;;;;27.00;70.60;;;;;;5096779;28;19920;-64
2022/07/18 09:16:01;;;;;;;;;;;27.10;70.40;;;;;;5095164;28;19942;-63
2022/07/18 09:18:36;;;;;;;;;;;27.10;70.80;;;;;;5077199;28;19967;-65
2022/07/18 09:21:03;;;;;;;;;;;27.20;71.00;;;;;;5095588;28;19930;-63
2022/07/18 09:23:29;;;;;;;;;;;27.20;71.00;;;;;;5079018;28;19920;-63
2022/07/18 09:25:55;;;;;;;;;;;27.20;71.40;;;;;;5095549;28;19920;-64
2022/07/18 09:28:21;;;;;;;;;;;27.10;71.00;;;;;;5095981;28;19926;-64
2022/07/18 09:30:46;;;;;;;;;;;27.00;71.20;;;;;;5078439;28;19927;-64
2022/07/18 09:33:12;;;;;;;;;;;26.70;71.00;;;;;;5095324;28;19920;-65
2022/07/18 09:36:07;;;;;;;;;;;26.90;71.40;;;;;;5096122;28;20014;-63
2022/07/18 09:38:33;;;;;;;;;;;26.90;70.30;;;;;;5030128;28;19927;-64
2022/07/18 09:40:58;;;;;;;;;;;26.80;71.70;;;;;;5017739;28;19925;-66
2022/07/18 09:43:24;;;;;;;;;;;27.00;71.50;;;;;;5033664;28;19921;-64
2022/07/18 09:45:50;;;;;;;;;;;26.90;72.10;;;;;;5017214;28;19921;-64
2022/07/18 09:48:20;;;;;;;;;;;26.80;72.20;;;;;;5016872;28;20023;-63
2022/07/18 09:50:52;;;;;;;;;;;26.90;70.90;;;;;;5000812;28;20379;-64
2022/07/18 09:53:26;;;;;;;;;;;26.90;70.90;;;;;;5032768;28;19921;-64
2022/07/18 09:55:51;;;;;;;;;;;26.80;70.90;;;;;;5017158;28;20302;-64
2022/07/18 09:58:18;;;;;;;;;;;26.60;71.90;;;;;;5016727;28;19929;-64
2022/07/18 10:00:44;;;;;;;;;;;26.80;72.50;;;;;;5033257;28;19921;-64
2022/07/18 10:03:09;;;;;;;;;;;26.70;72.30;;;;;;5000878;28;20310;-64
2022/07/18 10:05:36;;;;;;;;;;;26.90;72.50;;;;;;5016850;28;20418;-64
2022/07/18 10:08:03;;;;;;;;;;;26.90;72.70;;;;;;5026000;28;19928;-76
2022/07/18 10:10:29;;;;;;;;;;;26.90;72.80;;;;;;5012333;28;19948;-64
2022/07/18 10:12:55;;;;;;;;;;;26.70;71.50;;;;;;5010619;28;20056;-73
2022/07/18 10:15:22;;;;;;;;;;;27.00;71.50;;;;;;5058090;28;19920;-77
2022/07/18 10:17:47;;;;;;;;;;;27.00;71.10;;;;;;5077249;28;20379;-64
2022/07/18 10:20:13;;;;;;;;;;;27.00;70.50;;;;;;5059397;28;19919;-66
2022/07/18 10:22:42;;;;;;;;;;;27.10;70.30;;;;;;5061119;28;19920;-64
2022/07/18 10:25:08;;;;;;;;;;;26.90;70.60;;;;;;5076989;28;19924;-64
2022/07/18 10:27:49;;;;;;;;;;;27.10;70.70;;;;;;5094781;28;20378;-64
2022/07/18 10:30:15;;;;;;;;;;;27.00;69.40;;;;;;5076161;28;19920;-66
2022/07/18 10:32:41;;;;;;;;;;;27.00;69.80;;;;;;5076997;28;19927;-73
2022/07/18 10:35:07;;;;;;;;;;;27.30;70.50;;;;;;5095153;28;20026;-64
2022/07/18 10:37:36;;;;;;;;;;;27.30;69.80;;;;;;5077015;28;19932;-63
2022/07/18 10:40:34;;;;;;;;;;;27.10;68.90;;;;;;5074275;28;19974;-64
2022/07/18 10:43:18;;;;;;;;;;;27.30;68.80;;;;;;5029648;28;19921;-63
2022/07/18 10:45:44;;;;;;;;;;;27.30;68.80;;;;;;5030934;28;20011;-63
2022/07/18 10:48:29;;;;;;;;;;;27.40;70.10;;;;;;5000210;28;20268;-64
2022/07/18 10:51:00;;;;;;;;;;;27.10;68.50;;;;;;5031691;28;19921;-66
2022/07/18 10:53:45;;;;;;;;;;;27.30;68.70;;;;;;5032060;28;19931;-63
2022/07/18 10:56:11;;;;;;;;;;;27.30;68.80;;;;;;5014458;28;20469;-66
2022/07/18 10:58:38;;;;;;;;;;;27.30;69.60;;;;;;5015828;28;19976;-63
2022/07/18 11:01:03;;;;;;;;;;;27.20;69.40;;;;;;5032092;28;19972;-76
2022/07/18 11:03:29;;;;;;;;;;;27.60;69.50;;;;;;5040912;28;19944;-77
2022/07/18 11:05:55;;;;;;;;;;;27.40;69.00;;;;;;5031480;28;19925;-76
2022/07/18 11:08:23;;;;;;;;;;;27.50;68.60;;;;;;5015758;28;19925;-77
2022/07/18 11:10:57;;;;;;;;;;;27.50;68.50;;;;;;5032229;28;20011;-63
2022/07/18 11:13:29;;;;;;;;;;;27.40;67.50;;;;;;5031856;28;19928;-63
2022/07/18 11:16:06;;;;;;;;;;;27.40;67.20;;;;;;5030660;28;19921;-63
2022/07/18 11:18:44;;;;;;;;;;;27.50;67.10;;;;;;5044148;28;20372;-77
2022/07/18 11:21:29;;;;;;;;;;;27.30;66.80;;;;;;5094602;28;19924;-63
2022/07/18 11:24:01;;;;;;;;;;;27.70;67.00;;;;;;5092257;28;19935;-69
2022/07/18 11:26:26;;;;;;;;;;;27.60;67.00;;;;;;5094277;28;19920;-63
2022/07/18 11:29:10;;;;;;;;;;;27.60;67.70;;;;;;5071570;28;19927;-76
2022/07/18 11:31:55;;;;;;;;;;;27.40;66.10;;;;;;5074051;28;19974;-76
2022/07/18 11:34:21;;;;;;;;;;;27.80;65.70;;;;;;5073670;28;19920;-64
2022/07/18 11:36:47;;;;;;;;;;;27.50;67.00;;;;;;5072785;28;19921;-63
2022/07/18 11:39:13;;;;;;;;;;;27.50;66.60;;;;;;5071412;28;20296;-63
2022/07/18 11:41:40;;;;;;;;;;;27.70;66.60;;;;;;5073275;28;20392;-63
2022/07/18 11:44:06;;;;;;;;;;;27.60;66.50;;;;;;5073567;28;19928;-62
2022/07/18 11:46:31;;;;;;;;;;;27.80;66.80;;;;;;5072635;28;20331;-64
2022/07/18 11:48:58;;;;;;;;;;;27.80;66.50;;;;;;5071894;28;20342;-76
2022/07/18 11:51:23;;;;;;;;;;;27.50;66.60;;;;;;5071643;28;20289;-63
2022/07/18 11:53:50;;;;;;;;;;;27.60;66.20;;;;;;5072769;28;19927;-64
2022/07/18 11:56:16;;;;;;;;;;;27.70;66.30;;;;;;5071954;28;20377;-63
2022/07/18 11:58:42;;;;;;;;;;;27.80;66.30;;;;;;5073309;28;20397;-63
2022/07/18 12:01:07;;;;;;;;;;;27.70;66.50;;;;;;5072748;28;19925;-63
2022/07/18 12:03:33;;;;;;;;;;;28.00;66.10;;;;;;5073580;28;19920;-63
2022/07/18 12:06:02;;;;;;;;;;;27.90;66.50;;;;;;5073040;28;19927;-65
2022/07/18 12:08:35;;;;;;;;;;;28.10;66.30;;;;;;5071836;28;20376;-63
2022/07/18 12:11:21;;;;;;;;;;;28.00;64.90;;;;;;5071965;28;19921;-63
2022/07/18 12:13:54;;;;;;;;;;;28.00;64.70;;;;;;5089406;28;19920;-62
2022/07/18 12:16:30;;;;;;;;;;;27.70;64.40;;;;;;5070823;28;19925;-63
2022/07/18 12:19:01;;;;;;;;;;;28.20;64.70;;;;;;5055181;28;19920;-62
2022/07/18 12:21:43;;;;;;;;;;;28.00;65.90;;;;;;5072662;28;19974;-63
2022/07/18 12:24:19;;;;;;;;;;;27.80;64.50;;;;;;5072555;28;19924;-63
2022/07/18 12:26:44;;;;;;;;;;;28.20;65.00;;;;;;5071929;28;20393;-63
2022/07/18 12:29:10;;;;;;;;;;;28.10;65.80;;;;;;5071694;28;19920;-63
2022/07/18 12:31:45;;;;;;;;;;;28.20;65.70;;;;;;5072829;28;20015;-63
2022/07/18 12:34:11;;;;;;;;;;;28.10;66.10;;;;;;5071922;28;19971;-63
2022/07/18 12:36:50;;;;;;;;;;;28.30;66.00;;;;;;5073574;28;20378;-63
2022/07/18 12:39:24;;;;;;;;;;;27.90;64.00;;;;;;5071685;28;19924;-63
2022/07/18 12:41:50;;;;;;;;;;;28.10;65.40;;;;;;5072770;28;19924;-64
2022/07/18 12:44:15;;;;;;;;;;;28.10;64.80;;;;;;5071169;28;19978;-63
2022/07/18 12:46:41;;;;;;;;;;;28.00;64.80;;;;;;5069564;28;19975;-63
2022/07/18 12:49:07;;;;;;;;;;;28.30;65.20;;;;;;5052276;28;19928;-75
2022/07/18 12:51:32;;;;;;;;;;;27.90;64.90;;;;;;5053299;28;19920;-76
2022/07/18 12:53:58;;;;;;;;;;;28.00;65.30;;;;;;5069783;28;19920;-73
2022/07/18 12:56:23;;;;;;;;;;;28.10;65.30;;;;;;5072342;28;19924;-72
2022/07/18 12:58:49;;;;;;;;;;;28.00;65.30;;;;;;5072279;28;20309;-62
2022/07/18 13:01:15;;;;;;;;;;;28.00;64.50;;;;;;5071890;28;19925;-63
2022/07/18 13:03:40;;;;;;;;;;;28.10;65.20;;;;;;5070330;28;19924;-63
2022/07/18 13:06:06;;;;;;;;;;;28.10;64.90;;;;;;5072822;28;19987;-63
2022/07/18 13:08:32;;;;;;;;;;;28.20;65.20;;;;;;5073469;28;19943;-63
2022/07/18 13:10:58;;;;;;;;;;;28.20;64.50;;;;;;5073535;28;19920;-63
2022/07/18 13:13:24;;;;;;;;;;;27.90;63.80;;;;;;5072954;28;19927;-63
2022/07/18 13:15:49;;;;;;;;;;;28.10;64.20;;;;;;5070198;28;19938;-63
2022/07/18 13:18:15;;;;;;;;;;;28.10;63.80;;;;;;5072775;28;19978;-63
2022/07/18 13:20:41;;;;;;;;;;;28.10;64.10;;;;;;5055124;28;19928;-63
2022/07/18 13:23:06;;;;;;;;;;;28.10;64.70;;;;;;5073395;28;19920;-63
2022/07/18 13:25:35;;;;;;;;;;;27.90;64.70;;;;;;5072168;28;19927;-64
2022/07/18 13:28:00;;;;;;;;;;;27.90;64.00;;;;;;5071751;28;19921;-65
2022/07/18 13:30:26;;;;;;;;;;;27.80;64.80;;;;;;5076638;28;20015;-64
2022/07/18 13:32:52;;;;;;;;;;;27.90;64.70;;;;;;5066751;28;20015;-63
2022/07/18 13:35:17;;;;;;;;;;;27.90;65.10;;;;;;5069154;28;19920;-74
2022/07/18 13:37:43;;;;;;;;;;;27.80;65.20;;;;;;5070656;28;20043;-63
2022/07/18 13:40:10;;;;;;;;;;;27.70;65.40;;;;;;5062302;28;19920;-63
2022/07/18 13:42:35;;;;;;;;;;;28.20;65.40;;;;;;5076709;28;20010;-63
2022/07/18 13:45:01;;;;;;;;;;;28.00;65.90;;;;;;5075172;28;20370;-63
2022/07/18 13:47:27;;;;;;;;;;;28.00;65.70;;;;;;5075205;28;20347;-65
2022/07/18 13:49:52;;;;;;;;;;;28.00;66.00;;;;;;5073847;28;20430;-65
2022/07/18 13:52:18;;;;;;;;;;;27.90;65.50;;;;;;5074234;28;19920;-63
2022/07/18 13:54:44;;;;;;;;;;;28.00;65.60;;;;;;5075247;28;19920;-63
2022/07/18 13:57:10;;;;;;;;;;;27.80;65.00;;;;;;5075160;28;19920;-63
2022/07/18 13:59:35;;;;;;;;;;;27.90;65.50;;;;;;5075967;28;19928;-63
2022/07/18 14:02:01;;;;;;;;;;;27.90;65.30;;;;;;5075411;28;20263;-62
2022/07/18 14:04:27;;;;;;;;;;;28.00;65.60;;;;;;5074659;28;19921;-63
2022/07/18 14:06:52;;;;;;;;;;;28.20;65.60;;;;;;5075337;28;19973;-64
2022/07/18 14:09:18;;;;;;;;;;;28.10;66.10;;;;;;5066333;28;20743;-63
2022/07/18 14:11:44;;;;;;;;;;;28.20;66.00;;;;;;5075596;28;19959;-63
2022/07/18 14:14:09;;;;;;;;;;;27.90;66.20;;;;;;5076439;28;19920;-63
2022/07/18 14:16:37;;;;;;;;;;;27.90;66.30;;;;;;5074587;28;19931;-63
2022/07/18 14:19:03;;;;;;;;;;;27.90;66.60;;;;;;5076380;28;19920;-63